createdAt,value
2024-04-24T00:01:49.948Z,97283.66
2024-04-24T00:04:17.721Z,97280.22
2024-04-24T00:06:45.338Z,97281.44
2024-04-24T00:09:13.504Z,97272.31
2024-04-24T00:11:41.156Z,97268.66
2024-04-24T00:14:08.888Z,97259.53
2024-04-24T00:16:36.887Z,97260.13
2024-04-24T00:19:04.371Z,97252.63
2024-04-24T00:21:31.966Z,97247.16
2024-04-24T00:23:59.480Z,97243.50
2024-04-24T00:26:26.995Z,97247.56
2024-04-24T00:28:54.641Z,97233.38
2024-04-24T00:31:22.288Z,97232.16
2024-04-24T00:33:50.034Z,97237.84
2024-04-24T00:36:17.599Z,97226.47
2024-04-24T00:38:45.127Z,97229.31
2024-04-24T00:41:12.728Z,97223.66
2024-04-24T00:43:40.311Z,97221.41
2024-04-24T00:46:09.949Z,97219.59
2024-04-24T00:48:38.895Z,97216.97
2024-04-24T00:51:06.689Z,97212.50
2024-04-24T00:53:35.014Z,97209.06
2024-04-24T00:56:07.111Z,97208.84
2024-04-24T00:58:38.762Z,97204.16
2024-04-24T01:01:07.136Z,97199.69
2024-04-24T01:03:34.638Z,97195.63
2024-04-24T01:06:02.249Z,97189.97
2024-04-24T01:08:30.141Z,97192.81
2024-04-24T01:10:59.262Z,97188.75
2024-04-24T01:13:27.545Z,97185.72
2024-04-24T01:16:06.313Z,97184.69
2024-04-24T01:18:37.983Z,97186.13
2024-04-24T01:21:06.951Z,97174.53
2024-04-24T01:23:44.638Z,97171.06
2024-04-24T01:26:42.901Z,97171.88
2024-04-24T01:29:10.553Z,97165.38
2024-04-24T01:31:38.379Z,97164.13
2024-04-24T01:34:05.980Z,97163.31
2024-04-24T01:36:33.508Z,97157.22
2024-04-24T01:39:01.130Z,97152.53
2024-04-24T01:41:28.840Z,97144.84
2024-04-24T01:43:56.452Z,97139.91
2024-04-24T01:46:23.940Z,97141.72
2024-04-24T01:48:51.645Z,97140.50
2024-04-24T01:51:19.216Z,97138.28
2024-04-24T01:53:46.831Z,97133.19
2024-04-24T01:56:14.715Z,97135.00
2024-04-24T01:58:42.208Z,97130.94
2024-04-24T02:01:09.874Z,97123.06
2024-04-24T02:03:37.552Z,97122.06
2024-04-24T02:06:05.435Z,97124.88
2024-04-24T02:08:35.653Z,97127.91
2024-04-24T02:11:03.445Z,97118.19
2024-04-24T02:13:31.019Z,97124.06
2024-04-24T02:15:58.595Z,97119.63
2024-04-24T02:18:26.281Z,97119.22
2024-04-24T02:20:53.905Z,97112.13
2024-04-24T02:23:21.977Z,97112.75
2024-04-24T02:25:50.234Z,97103.03
2024-04-24T02:28:17.856Z,97106.06
2024-04-24T02:30:45.495Z,97104.06
2024-04-24T02:33:13.207Z,97103.03
2024-04-24T02:35:40.836Z,97094.34
2024-04-24T02:38:09.187Z,97094.16
2024-04-24T02:40:36.735Z,97094.34
2024-04-24T02:43:04.424Z,97093.53
2024-04-24T02:45:32.043Z,97089.88
2024-04-24T02:47:59.661Z,97085.81
2024-04-24T02:50:28.576Z,97080.94
2024-04-24T02:52:56.434Z,97077.09
2024-04-24T02:55:23.967Z,97074.47
2024-04-24T02:57:51.645Z,97072.03
2024-04-24T03:00:19.324Z,97079.72
2024-04-24T03:02:46.974Z,97071.66
2024-04-24T03:05:14.826Z,97069.81
2024-04-24T03:07:42.394Z,97064.56
2024-04-24T03:10:09.971Z,97061.28
2024-04-24T03:12:37.503Z,97051.97
2024-04-24T03:15:05.499Z,97057.22
2024-04-24T03:17:33.314Z,97054.81
2024-04-24T03:20:01.110Z,97057.44
2024-04-24T03:22:30.275Z,97046.69
2024-04-24T03:24:57.813Z,97047.09
2024-04-24T03:27:25.318Z,97051.78
2024-04-24T03:29:53.004Z,97042.63
2024-04-24T03:32:20.534Z,97041.19
2024-04-24T03:34:48.168Z,97045.47
2024-04-24T03:37:15.765Z,97039.38
2024-04-24T03:39:43.349Z,97040.81
2024-04-24T03:42:10.895Z,97041.59
2024-04-24T03:44:38.531Z,97036.16
2024-04-24T03:47:06.451Z,97037.59
2024-04-24T03:49:34.025Z,97034.94
2024-04-24T03:52:01.576Z,97036.97
2024-04-24T03:54:29.120Z,97025.03
2024-04-24T03:56:58.096Z,97026.66
2024-04-24T03:59:25.885Z,97037.38
2024-04-24T04:01:53.578Z,97023.00
2024-04-24T04:04:21.276Z,97025.06
2024-04-24T04:06:48.928Z,97027.06
2024-04-24T04:09:16.454Z,97019.78
2024-04-24T04:11:44.097Z,97023.22
2024-04-24T04:14:11.706Z,97021.63
2024-04-24T04:16:39.392Z,97021.41
2024-04-24T04:19:07.075Z,97017.56
2024-04-24T04:21:34.568Z,97011.72
2024-04-24T04:24:02.130Z,97011.72
2024-04-24T04:26:29.748Z,97009.69
2024-04-24T04:28:57.401Z,97006.03
2024-04-24T04:31:24.972Z,97004.22
2024-04-24T04:33:53.068Z,97007.44
2024-04-24T04:36:20.697Z,97008.03
2024-04-24T04:38:48.308Z,97007.97
2024-04-24T04:41:15.814Z,97003.41
2024-04-24T04:43:43.382Z,97001.84
2024-04-24T04:46:10.906Z,97003.63
2024-04-24T04:48:38.606Z,96996.22
2024-04-24T04:51:06.565Z,96998.59
2024-04-24T04:53:34.380Z,96997.78
2024-04-24T04:56:02.133Z,96996.47
2024-04-24T04:58:29.684Z,96994.84
2024-04-24T05:00:57.426Z,96985.38
2024-04-24T05:03:25.194Z,96992.63
2024-04-24T05:05:54.370Z,96992.63
2024-04-24T05:08:22.004Z,96983.25
2024-04-24T05:10:49.916Z,96983.44
2024-04-24T05:13:18.586Z,96977.50
2024-04-24T05:15:46.167Z,96974.88
2024-04-24T05:18:14.538Z,96978.50
2024-04-24T05:20:42.272Z,96977.88
2024-04-24T05:23:09.976Z,96972.31
2024-04-24T05:25:38.518Z,96977.22
2024-04-24T05:28:28.017Z,96968.34
2024-04-24T05:30:55.617Z,96972.63
2024-04-24T05:33:23.314Z,96974.03
2024-04-24T05:35:50.937Z,96971.53
2024-04-24T05:38:18.708Z,96967.13
2024-04-24T05:40:46.378Z,96961.84
2024-04-24T05:43:16.593Z,96957.78
2024-04-24T05:45:44.497Z,96958.78
2024-04-24T05:48:12.419Z,96951.03
2024-04-24T05:50:40.038Z,96953.50
2024-04-24T05:53:07.768Z,96944.44
2024-04-24T05:55:35.790Z,96941.91
2024-04-24T05:58:04.157Z,96941.78
2024-04-24T06:00:31.655Z,96941.44
2024-04-24T06:03:00.253Z,96938.31
2024-04-24T06:05:27.962Z,96939.59
2024-04-24T06:07:56.459Z,96940.41
2024-04-24T06:10:24.034Z,96936.84
2024-04-24T06:12:51.613Z,96943.16
2024-04-24T06:15:19.322Z,96936.25
2024-04-24T06:17:46.965Z,96936.72
2024-04-24T06:20:17.888Z,96930.75
2024-04-24T06:22:45.969Z,96939.97
2024-04-24T06:25:13.793Z,96924.72
2024-04-24T06:27:41.458Z,96928.69
2024-04-24T06:30:09.175Z,96929.69
2024-04-24T06:32:36.961Z,96920.03
2024-04-24T06:35:05.143Z,96923.78
2024-04-24T06:37:32.721Z,96923.97
2024-04-24T06:40:00.354Z,96925.66
2024-04-24T06:42:29.565Z,96925.13
2024-04-24T06:44:57.120Z,96924.25
2024-04-24T06:47:24.826Z,96921.84
2024-04-24T06:49:52.493Z,96914.91
2024-04-24T06:52:19.999Z,96911.22
2024-04-24T06:54:47.576Z,96915.38
2024-04-24T06:57:15.183Z,96909.84
2024-04-24T06:59:43.043Z,96907.53
2024-04-24T07:02:10.720Z,96909.50
2024-04-24T07:04:39.076Z,96897.22
2024-04-24T07:07:06.632Z,96895.53
2024-04-24T07:09:34.554Z,96897.03
2024-04-24T07:12:02.340Z,96894.75
2024-04-24T07:14:30.288Z,96893.03
2024-04-24T07:16:57.928Z,96891.53
2024-04-24T07:19:25.607Z,96888.78
2024-04-24T07:21:53.145Z,96881.34
2024-04-24T07:24:20.772Z,96883.81
2024-04-24T07:26:48.347Z,96890.69
2024-04-24T07:29:15.936Z,96881.28
2024-04-24T07:31:43.541Z,96883.88
2024-04-24T07:34:11.103Z,96880.44
2024-04-24T07:36:38.817Z,96874.13
2024-04-24T07:39:06.459Z,96877.47
2024-04-24T07:41:34.014Z,96869.75
2024-04-24T07:44:01.669Z,96869.63
2024-04-24T07:46:29.258Z,96864.38
2024-04-24T07:48:56.902Z,96867.34
2024-04-24T07:51:24.511Z,96864.13
2024-04-24T07:53:52.217Z,96863.84
2024-04-24T07:56:19.865Z,96862.25
2024-04-24T07:58:47.410Z,96858.22
2024-04-24T08:01:16.899Z,96859.25
2024-04-24T08:03:44.464Z,96863.66
2024-04-24T08:06:12.102Z,96860.91
2024-04-24T08:08:40.531Z,96866.22
2024-04-24T08:11:08.660Z,96875.69
2024-04-24T08:13:36.350Z,96870.44
2024-04-24T08:16:04.114Z,96871.22
2024-04-24T08:18:31.708Z,96870.59
2024-04-24T08:20:59.365Z,96883.50
2024-04-24T08:23:27.573Z,96867.44
2024-04-24T08:25:56.024Z,96866.75
2024-04-24T08:28:33.234Z,96868.03
2024-04-24T08:31:08.752Z,96869.88
2024-04-24T08:33:37.461Z,96865.69
2024-04-24T08:36:08.024Z,96869.41
2024-04-24T08:38:35.755Z,96859.16
2024-04-24T08:41:10.891Z,96866.56
2024-04-24T08:43:43.311Z,96867.38
2024-04-24T08:46:12.108Z,96857.88
2024-04-24T08:48:41.528Z,96856.69
2024-04-24T08:51:10.941Z,96863.91
2024-04-24T08:53:54.573Z,96855.75
2024-04-24T08:56:28.176Z,96848.34
2024-04-24T08:59:01.171Z,96843.88
2024-04-24T09:01:33.431Z,96843.56
2024-04-24T09:04:09.872Z,96840.84
2024-04-24T09:06:39.818Z,96836.47
2024-04-24T09:09:09.161Z,96828.63
2024-04-24T09:11:37.006Z,96829.72
2024-04-24T09:14:05.395Z,96834.09
2024-04-24T09:16:36.428Z,96827.44
2024-04-24T09:19:05.750Z,96825.72
2024-04-24T09:21:33.747Z,96828.09
2024-04-24T09:24:01.631Z,96819.16
2024-04-24T09:26:29.894Z,96817.25
2024-04-24T09:28:57.628Z,96818.38
2024-04-24T09:31:25.272Z,96811.97
2024-04-24T09:33:52.813Z,96813.56
2024-04-24T09:36:20.473Z,96806.00
2024-04-24T09:38:48.072Z,96798.63
2024-04-24T09:41:16.055Z,96801.91
2024-04-24T09:43:44.220Z,96805.19
2024-04-24T09:46:13.247Z,96802.06
2024-04-24T09:48:41.306Z,96799.91
2024-04-24T09:51:11.568Z,96807.94
2024-04-24T09:53:39.636Z,96807.41
2024-04-24T09:56:22.348Z,96809.28
2024-04-24T09:58:56.630Z,96811.75
2024-04-24T10:01:27.649Z,96809.28
2024-04-24T10:03:58.642Z,96801.63
2024-04-24T10:06:28.835Z,96797.41
2024-04-24T10:08:59.290Z,96802.81
2024-04-24T10:11:31.097Z,96794.94
2024-04-24T10:14:00.438Z,96790.41
2024-04-24T10:16:28.560Z,96799.78
2024-04-24T10:18:57.407Z,96805.66
2024-04-24T10:21:25.301Z,96805.75
2024-04-24T10:23:53.405Z,96794.53
2024-04-24T10:26:22.309Z,96798.19
2024-04-24T10:28:51.063Z,96793.06
2024-04-24T10:31:20.037Z,96790.22
2024-04-24T10:33:47.994Z,96788.50
2024-04-24T10:36:15.806Z,96792.28
2024-04-24T10:38:44.543Z,96789.63
2024-04-24T10:41:12.385Z,96778.41
2024-04-24T10:43:42.899Z,96783.44
2024-04-24T10:46:10.688Z,96782.94
2024-04-24T10:48:45.014Z,96778.50
2024-04-24T10:51:12.711Z,96778.19
2024-04-24T10:53:55.991Z,96773.66
2024-04-24T10:56:36.474Z,96773.72
2024-04-24T10:59:07.362Z,96775.03
2024-04-24T11:01:42.819Z,96781.13
2024-04-24T11:04:19.267Z,96776.50
2024-04-24T11:06:46.930Z,96775.19
2024-04-24T11:09:14.791Z,96782.88
2024-04-24T11:11:43.030Z,96784.56
2024-04-24T11:14:13.585Z,96781.66
2024-04-24T11:16:55.779Z,96784.00
2024-04-24T11:19:23.955Z,96780.34
2024-04-24T11:21:51.577Z,96780.13
2024-04-24T11:24:48.444Z,96780.69
2024-04-24T11:27:16.202Z,96788.34
2024-04-24T11:29:43.892Z,96785.56
2024-04-24T11:32:12.538Z,96788.03
2024-04-24T11:34:41.204Z,96789.00
2024-04-24T11:37:09.252Z,96788.03
2024-04-24T11:39:37.171Z,96780.75
2024-04-24T11:42:05.028Z,96790.00
2024-04-24T11:44:34.030Z,96775.47
2024-04-24T11:47:01.853Z,96774.44
2024-04-24T11:49:29.606Z,96779.72
2024-04-24T11:51:57.562Z,96774.41
2024-04-24T11:54:28.968Z,96775.84
2024-04-24T11:57:01.223Z,96773.16
2024-04-24T11:59:31.108Z,96771.91
2024-04-24T12:01:58.993Z,96773.72
2024-04-24T12:04:26.775Z,96780.50
2024-04-24T12:06:54.602Z,96781.06
2024-04-24T12:09:22.151Z,96772.59
2024-04-24T12:11:50.881Z,96774.88
2024-04-24T12:14:18.676Z,96775.41
2024-04-24T12:16:46.348Z,96771.50
2024-04-24T12:19:13.969Z,96768.25
2024-04-24T12:21:43.113Z,96758.78
2024-04-24T12:24:10.915Z,96757.63
2024-04-24T12:26:38.540Z,96759.00
2024-04-24T12:29:06.120Z,96750.31
2024-04-24T12:31:33.815Z,96746.59
2024-04-24T12:34:01.701Z,96746.44
2024-04-24T12:36:29.334Z,96736.78
2024-04-24T12:38:56.956Z,96724.56
2024-04-24T12:41:24.708Z,96722.50
2024-04-24T12:43:52.433Z,96717.91
2024-04-24T12:46:20.080Z,96721.72
2024-04-24T12:48:54.554Z,96712.91
2024-04-24T12:51:26.081Z,96717.00
2024-04-24T12:53:53.925Z,96716.78
2024-04-24T12:56:21.542Z,96714.28
2024-04-24T12:58:51.088Z,96709.63
2024-04-24T13:01:19.961Z,96716.50
2024-04-24T13:03:48.770Z,96706.84
2024-04-24T13:06:23.963Z,96712.94
2024-04-24T13:08:52.197Z,96707.88
2024-04-24T13:11:20.048Z,96711.63
2024-04-24T13:13:47.736Z,96714.84
2024-04-24T13:16:15.473Z,96705.25
2024-04-24T13:18:44.121Z,96700.97
2024-04-24T13:21:11.824Z,96702.31
2024-04-24T13:23:39.381Z,96707.38
2024-04-24T13:26:06.955Z,96704.44
2024-04-24T13:28:34.486Z,96698.28
2024-04-24T13:31:05.649Z,96702.56
2024-04-24T13:33:35.211Z,96693.97
2024-04-24T13:36:02.925Z,96696.38
2024-04-24T13:38:30.482Z,96699.63
2024-04-24T13:41:05.154Z,96694.78
2024-04-24T13:43:32.917Z,96695.88
2024-04-24T13:46:00.529Z,96692.16
2024-04-24T13:48:31.462Z,96691.91
2024-04-24T13:51:00.583Z,96695.31
2024-04-24T13:53:28.216Z,96698.72
2024-04-24T13:55:55.957Z,96693.41
2024-04-24T13:58:23.600Z,96693.59
2024-04-24T14:00:51.591Z,96695.81
2024-04-24T14:03:19.264Z,96681.75
2024-04-24T14:05:50.877Z,96684.16
2024-04-24T14:08:18.585Z,96683.19
2024-04-24T14:10:46.720Z,96676.22
2024-04-24T14:13:14.438Z,96677.88
2024-04-24T14:15:42.288Z,96672.75
2024-04-24T14:18:09.934Z,96674.56
2024-04-24T14:20:37.701Z,96674.84
2024-04-24T14:23:06.047Z,96672.97
2024-04-24T14:25:35.446Z,96671.81
2024-04-24T14:28:03.873Z,96677.47
2024-04-24T14:30:31.492Z,96669.88
2024-04-24T14:32:59.333Z,96669.28
2024-04-24T14:35:27.248Z,96671.69
2024-04-24T14:37:55.020Z,96673.84
2024-04-24T14:40:22.628Z,96673.31
2024-04-24T14:42:50.253Z,96673.06
2024-04-24T14:45:17.958Z,96668.09
2024-04-24T14:47:46.725Z,96670.97
2024-04-24T14:50:14.725Z,96674.72
2024-04-24T14:52:42.515Z,96669.94
2024-04-24T14:55:10.685Z,96672.44
2024-04-24T14:57:38.372Z,96670.91
2024-04-24T15:00:06.725Z,96668.31
2024-04-24T15:02:34.310Z,96676.50
2024-04-24T15:05:02.178Z,96674.38
2024-04-24T15:07:29.841Z,96667.88
2024-04-24T15:09:57.785Z,96665.41
2024-04-24T15:12:25.419Z,96675.13
2024-04-24T15:14:53.093Z,96668.13
2024-04-24T15:17:20.779Z,96670.88
2024-04-24T15:19:48.511Z,96676.75
2024-04-24T15:22:16.239Z,96672.34
2024-04-24T15:24:43.836Z,96673.78
2024-04-24T15:27:11.474Z,96670.09
2024-04-24T15:29:39.034Z,96673.97
2024-04-24T15:32:06.785Z,96664.00
2024-04-24T15:34:35.065Z,96663.34
2024-04-24T15:37:05.494Z,96664.06
2024-04-24T15:39:33.430Z,96655.63
2024-04-24T15:42:00.987Z,96653.09
2024-04-24T15:44:28.898Z,96656.69
2024-04-24T15:46:56.542Z,96654.03
2024-04-24T15:49:24.137Z,96651.56
2024-04-24T15:51:51.702Z,96651.25
2024-04-24T15:54:19.226Z,96649.66
2024-04-24T15:56:46.760Z,96653.03
2024-04-24T15:59:14.409Z,96649.81
2024-04-24T16:01:42.136Z,96661.91
2024-04-24T16:04:09.798Z,96655.47
2024-04-24T16:06:37.437Z,96652.53
2024-04-24T16:09:04.996Z,96645.53
2024-04-24T16:11:32.739Z,96646.91
2024-04-24T16:14:00.320Z,96652.00
2024-04-24T16:16:28.051Z,96650.84
2024-04-24T16:18:55.710Z,96642.25
2024-04-24T16:21:23.475Z,96648.38
2024-04-24T16:23:51.172Z,96650.72
2024-04-24T16:26:18.874Z,96650.63
2024-04-24T16:28:46.625Z,96648.75
2024-04-24T16:31:14.660Z,96646.75
2024-04-24T16:33:42.562Z,96645.84
2024-04-24T16:36:11.712Z,96649.09
2024-04-24T16:38:39.366Z,96659.50
2024-04-24T16:41:08.131Z,96659.47
2024-04-24T16:43:35.757Z,96654.09
2024-04-24T16:46:03.415Z,96652.72
2024-04-24T16:48:31.256Z,96647.53
2024-04-24T16:50:58.878Z,96643.28
2024-04-24T16:53:26.668Z,96645.66
2024-04-24T16:55:54.268Z,96648.00
2024-04-24T16:58:21.755Z,96646.31
2024-04-24T17:00:49.560Z,96650.84
2024-04-24T17:03:17.388Z,96646.41
2024-04-24T17:05:45.042Z,96665.69
2024-04-24T17:08:12.675Z,96662.47
2024-04-24T17:10:41.616Z,96670.50
2024-04-24T17:13:09.204Z,96668.69
2024-04-24T17:15:36.893Z,96664.16
2024-04-24T17:18:04.852Z,96674.16
2024-04-24T17:20:32.747Z,96670.13
2024-04-24T17:23:00.626Z,96661.88
2024-04-24T17:25:28.425Z,96661.38
2024-04-24T17:27:56.009Z,96670.91
2024-04-24T17:30:23.620Z,96673.97
2024-04-24T17:32:52.137Z,96684.53
2024-04-24T17:35:20.100Z,96682.00
2024-04-24T17:37:47.784Z,96686.19
2024-04-24T17:40:15.494Z,96672.22
2024-04-24T17:42:43.594Z,96678.25
2024-04-24T17:45:11.168Z,96685.06
2024-04-24T17:47:38.874Z,96679.41
2024-04-24T17:50:07.420Z,96669.78
2024-04-24T17:52:36.708Z,96676.00
2024-04-24T17:55:05.528Z,96673.69
2024-04-24T17:57:34.080Z,96679.19
2024-04-24T18:00:02.339Z,96677.81
2024-04-24T18:02:32.038Z,96679.09
2024-04-24T18:05:01.931Z,96686.13
2024-04-24T18:07:29.623Z,96682.75
2024-04-24T18:09:57.254Z,96688.75
2024-04-24T18:12:24.898Z,96688.19
2024-04-24T18:14:52.474Z,96692.09
2024-04-24T18:17:21.174Z,96696.69
2024-04-24T18:19:48.724Z,96701.13
2024-04-24T18:22:16.415Z,96706.72
2024-04-24T18:24:44.094Z,96704.41
2024-04-24T18:27:11.776Z,96714.59
2024-04-24T18:29:39.358Z,96709.75
2024-04-24T18:32:07.351Z,96713.50
2024-04-24T18:34:34.946Z,96708.75
2024-04-24T18:37:02.588Z,96707.34
2024-04-24T18:39:30.377Z,96714.47
2024-04-24T18:41:58.208Z,96716.75
2024-04-24T18:44:25.879Z,96717.41
2024-04-24T18:46:53.543Z,96727.63
2024-04-24T18:49:21.180Z,96725.94
2024-04-24T18:51:48.835Z,96727.63
2024-04-24T18:54:16.409Z,96722.19
2024-04-24T18:56:44.226Z,96729.75
2024-04-24T18:59:12.176Z,96731.31
2024-04-24T19:01:39.763Z,96732.31
2024-04-24T19:04:13.351Z,96731.75
2024-04-24T19:06:41.145Z,96729.09
2024-04-24T19:09:11.863Z,96730.19
2024-04-24T19:11:39.577Z,96735.75
2024-04-24T19:14:07.226Z,96731.34
2024-04-24T19:16:37.424Z,96740.13
2024-04-24T19:19:05.672Z,96737.91
2024-04-24T19:21:33.216Z,96737.81
2024-04-24T19:24:00.822Z,96741.75
2024-04-24T19:26:29.803Z,96738.38
2024-04-24T19:28:57.707Z,96735.13
2024-04-24T19:31:32.501Z,96738.19
2024-04-24T19:34:01.430Z,96735.44
2024-04-24T19:36:28.943Z,96734.25
2024-04-24T19:38:57.071Z,96741.56
2024-04-24T19:41:24.660Z,96740.75
2024-04-24T19:43:52.238Z,96738.22
2024-04-24T19:46:19.847Z,96740.97
2024-04-24T19:48:47.423Z,96738.75
2024-04-24T19:51:17.853Z,96734.03
2024-04-24T19:53:45.602Z,96738.69
2024-04-24T19:56:13.212Z,96734.44
2024-04-24T19:58:40.914Z,96737.47
2024-04-24T20:01:10.029Z,96736.63
2024-04-24T20:03:39.051Z,96742.94
2024-04-24T20:06:08.134Z,96738.47
2024-04-24T20:08:36.554Z,96732.56
2024-04-24T20:11:08.119Z,96733.16
2024-04-24T20:13:36.617Z,96738.84
2024-04-24T20:16:08.594Z,96739.28
2024-04-24T20:18:39.294Z,96736.44
2024-04-24T20:21:16.852Z,96745.38
2024-04-24T20:23:44.781Z,96740.09
2024-04-24T20:26:25.225Z,96740.91
2024-04-24T20:28:53.002Z,96740.91
2024-04-24T20:31:27.626Z,96734.59
2024-04-24T20:33:57.733Z,96735.03
2024-04-24T20:36:27.661Z,96737.47
2024-04-24T20:38:56.823Z,96730.84
2024-04-24T20:41:26.195Z,96732.06
2024-04-24T20:43:53.881Z,96732.63
2024-04-24T20:46:21.536Z,96736.13
2024-04-24T20:48:49.425Z,96731.69
2024-04-24T20:51:16.986Z,96734.50
2024-04-24T20:53:44.734Z,96731.03
2024-04-24T20:56:18.616Z,96727.16
2024-04-24T20:58:46.463Z,96731.59
2024-04-24T21:01:14.715Z,96729.38
2024-04-24T21:03:42.324Z,96736.50
2024-04-24T21:06:11.490Z,96733.44
2024-04-24T21:08:39.754Z,96733.44
2024-04-24T21:11:09.050Z,96729.75
2024-04-24T21:13:37.756Z,96734.41
2024-04-24T21:16:10.922Z,96732.16
2024-04-24T21:18:38.678Z,96727.69
2024-04-24T21:21:06.298Z,96726.81
2024-04-24T21:23:33.925Z,96723.16
2024-04-24T21:26:02.044Z,96724.56
2024-04-24T21:28:33.824Z,96729.41
2024-04-24T21:31:01.819Z,96725.31
2024-04-24T21:33:31.001Z,96722.47
2024-04-24T21:36:05.416Z,96721.06
2024-04-24T21:38:35.548Z,96721.31
2024-04-24T21:41:05.346Z,96717.25
2024-04-24T21:43:33.412Z,96722.69
2024-04-24T21:46:09.659Z,96712.53
2024-04-24T21:48:37.346Z,96719.59
2024-04-24T21:51:05.174Z,96713.91
2024-04-24T21:53:33.499Z,96712.91
2024-04-24T21:56:01.139Z,96716.53
2024-04-24T21:58:28.832Z,96707.69
2024-04-24T22:00:56.538Z,96715.78
2024-04-24T22:03:24.567Z,96712.13
2024-04-24T22:05:52.178Z,96709.34
2024-04-24T22:08:19.785Z,96704.22
2024-04-24T22:10:47.353Z,96704.50
2024-04-24T22:13:14.980Z,96707.13
2024-04-24T22:15:42.544Z,96703.53
2024-04-24T22:18:14.279Z,96709.84
2024-04-24T22:20:42.239Z,96704.25
2024-04-24T22:23:09.814Z,96703.25
2024-04-24T22:25:37.403Z,96702.88
2024-04-24T22:28:05.218Z,96702.69
2024-04-24T22:30:32.903Z,96704.34
2024-04-24T22:33:00.610Z,96706.19
2024-04-24T22:35:28.890Z,96703.41
2024-04-24T22:37:56.472Z,96694.31
2024-04-24T22:40:24.160Z,96702.03
2024-04-24T22:42:51.825Z,96699.59
2024-04-24T22:45:19.442Z,96691.06
2024-04-24T22:47:47.352Z,96704.09
2024-04-24T22:50:15.074Z,96701.06
2024-04-24T22:52:42.641Z,96695.63
2024-04-24T22:55:10.325Z,96694.44
2024-04-24T22:57:37.859Z,96688.31
2024-04-24T23:00:05.860Z,96692.38
2024-04-24T23:02:33.595Z,96688.13
2024-04-24T23:05:01.196Z,96684.09
2024-04-24T23:07:28.786Z,96683.28
2024-04-24T23:09:56.404Z,96689.78
2024-04-24T23:12:24.015Z,96684.50
2024-04-24T23:14:51.538Z,96688.19
2024-04-24T23:17:19.141Z,96681.69
2024-04-24T23:19:46.870Z,96688.19
2024-04-24T23:22:14.366Z,96676.69
2024-04-24T23:24:42.045Z,96677.91
2024-04-24T23:27:09.550Z,96676.72
2024-04-24T23:29:37.242Z,96678.53
2024-04-24T23:32:05.183Z,96678.16
2024-04-24T23:34:32.843Z,96681.63
2024-04-24T23:37:00.410Z,96686.88
2024-04-24T23:39:27.969Z,96680.41
2024-04-24T23:41:55.441Z,96684.66
2024-04-24T23:44:23.084Z,96685.25
2024-04-24T23:46:50.655Z,96673.34
2024-04-24T23:49:18.287Z,96686.28
2024-04-24T23:51:45.774Z,96681.03
2024-04-24T23:54:13.406Z,96687.47
2024-04-24T23:56:41.086Z,96683.25
2024-04-24T23:59:08.702Z,96686.50
